Time;durP1;ratioP1;P1;durP2;ratioP2;P2;SDS_P1;SDS_P2;PMS_P1;PMS_P2;Temp;Humidity;BMP_temperature;BMP_pressure;BME280_temperature;BME280_humidity;BME280_pressure;Samples;Min_cycle;Max_cycle;Signal;HPM_P1;HPM_P2
2021/07/09 00:01:43;;;;;;;2.22;0.72;;;;;;;19.33;71.16;100477.50;1782586;78;21045;-62
2021/07/09 00:04:09;;;;;;;5.90;0.70;;;;;;;19.30;71.28;100475.89;1814218;77;20935;-62
2021/07/09 00:06:37;;;;;;;1.87;0.70;;;;;;;19.28;71.32;100480.58;1783419;78;20933;-63
2021/07/09 00:09:04;;;;;;;1.50;0.82;;;;;;;19.24;71.21;100479.91;1813218;77;21062;-61
2021/07/09 00:11:32;;;;;;;5.78;1.00;;;;;;;19.21;71.29;100476.06;1781177;78;20890;-57
2021/07/09 00:14:00;;;;;;;3.10;0.90;;;;;;;19.18;71.47;100476.77;1814425;77;20890;-62
2021/07/09 00:16:27;;;;;;;2.85;0.80;;;;;;;19.17;71.58;100468.20;1783891;78;21389;-62
2021/07/09 00:18:56;;;;;;;1.22;1.00;;;;;;;19.14;71.62;100470.64;1775085;78;21025;-60
2021/07/09 00:21:22;;;;;;;2.42;0.80;;;;;;;19.13;71.52;100472.14;1791654;78;21100;-60
2021/07/09 00:23:50;;;;;;;2.52;0.88;;;;;;;19.10;71.42;100477.32;1787796;78;20874;-62
2021/07/09 00:26:16;;;;;;;2.12;0.75;;;;;;;19.07;71.47;100472.56;1785998;78;20989;-59
2021/07/09 00:28:43;;;;;;;0.90;0.78;;;;;;;19.04;71.50;100469.59;1786652;78;20913;-59
2021/07/09 00:31:09;;;;;;;1.65;0.90;;;;;;;19.03;71.50;100467.84;1787969;78;21372;-60
2021/07/09 00:33:35;;;;;;;1.02;0.78;;;;;;;19.02;71.37;100469.31;1787405;78;21099;-61
2021/07/09 00:36:04;;;;;;;2.70;0.82;;;;;;;19.00;71.30;100468.05;1788786;78;21831;-57
2021/07/09 00:38:30;;;;;;;4.12;0.88;;;;;;;18.97;71.23;100470.98;1789548;78;20937;-63
2021/07/09 00:40:57;;;;;;;3.35;0.85;;;;;;;18.95;71.28;100468.00;1786340;78;20941;-58
2021/07/09 00:43:23;;;;;;;6.10;1.02;;;;;;;18.89;71.27;100463.84;1790655;78;20981;-61
2021/07/09 00:45:50;;;;;;;3.52;0.90;;;;;;;18.84;71.23;100465.55;1788945;78;21578;-62
2021/07/09 00:48:17;;;;;;;3.55;1.32;;;;;;;18.80;71.27;100461.28;1788621;78;20917;-58
2021/07/09 00:50:43;;;;;;;1.05;0.70;;;;;;;18.74;71.33;100458.99;1787599;78;20905;-58
2021/07/09 00:53:11;;;;;;;1.40;0.65;;;;;;;18.70;71.44;100459.33;1788519;78;20871;-61
2021/07/09 00:55:38;;;;;;;7.97;0.70;;;;;;;18.68;71.40;100459.92;1785537;78;21060;-61
2021/07/09 00:58:04;;;;;;;3.40;0.78;;;;;;;18.66;71.37;100464.60;1777361;78;21539;-58
2021/07/09 01:00:32;;;;;;;4.12;1.10;;;;;;;18.62;71.34;100465.33;1782744;78;22512;-61
2021/07/09 01:02:58;;;;;;;0.80;0.70;;;;;;;18.59;71.26;100462.80;1784857;79;21055;-58
2021/07/09 01:05:26;;;;;;;2.83;0.78;;;;;;;18.56;71.36;100462.97;1784745;79;21037;-60
2021/07/09 01:07:52;;;;;;;4.25;0.85;;;;;;;18.54;71.47;100463.59;1785582;78;22690;-58
2021/07/09 01:10:21;;;;;;;4.35;0.72;;;;;;;18.52;71.59;100458.73;1783741;78;21064;-61
2021/07/09 01:12:49;;;;;;;4.20;0.70;;;;;;;18.50;71.58;100460.20;1788899;78;21037;-57
2021/07/09 01:15:17;;;;;;;2.37;0.80;;;;;;;18.48;71.53;100458.55;1753496;79;21111;-60
2021/07/09 01:17:46;;;;;;;2.55;0.82;;;;;;;18.45;71.46;100453.34;1783611;78;21029;-61
2021/07/09 01:20:15;;;;;;;1.77;0.80;;;;;;;18.43;71.47;100451.20;1776252;78;21158;-59
2021/07/09 01:22:43;;;;;;;2.95;0.80;;;;;;;18.41;71.54;100454.52;1773290;78;21124;-59
2021/07/09 01:25:15;;;;;;;4.42;0.80;;;;;;;18.40;71.66;100454.13;1772030;79;21435;-56
2021/07/09 01:27:43;;;;;;;2.17;0.80;;;;;;;18.37;71.72;100448.91;1785017;78;20978;-61
2021/07/09 01:30:13;;;;;;;0.80;0.70;;;;;;;18.35;71.84;100450.37;1794282;78;20887;-55
2021/07/09 01:32:40;;;;;;;2.77;1.22;;;;;;;18.33;71.82;100447.36;1779453;78;21637;-55
2021/07/09 01:35:07;;;;;;;2.55;0.70;;;;;;;18.30;71.71;100448.44;1776828;79;22448;-55
2021/07/09 01:37:35;;;;;;;2.00;0.70;;;;;;;18.27;71.71;100447.30;1777276;78;21072;-54
2021/07/09 01:40:01;;;;;;;0.88;0.80;;;;;;;18.25;71.73;100455.19;1780375;79;21044;-55
2021/07/09 01:42:28;;;;;;;2.05;0.72;;;;;;;18.23;71.82;100449.84;1780598;78;21067;-54
2021/07/09 01:44:54;;;;;;;5.95;0.90;;;;;;;18.21;71.84;100450.42;1776858;78;21084;-54
2021/07/09 01:47:20;;;;;;;1.27;0.70;;;;;;;18.20;71.87;100451.92;1779785;78;22082;-55
2021/07/09 01:49:53;;;;;;;4.03;0.70;;;;;;;18.15;71.88;100444.92;1782422;78;21397;-55
2021/07/09 01:52:20;;;;;;;2.58;0.70;;;;;;;18.11;71.79;100447.48;1784576;78;20949;-54
2021/07/09 01:54:47;;;;;;;1.35;0.68;;;;;;;18.08;71.77;100449.05;1777183;79;21063;-54
2021/07/09 01:57:13;;;;;;;1.65;0.70;;;;;;;18.07;71.81;100451.88;1779160;78;21420;-53
2021/07/09 01:59:41;;;;;;;1.37;0.70;;;;;;;18.05;71.80;100450.61;1778518;78;22186;-53
2021/07/09 02:02:08;;;;;;;1.20;0.75;;;;;;;18.05;71.77;100447.88;1775470;78;21497;-54
2021/07/09 02:04:50;;;;;;;1.92;0.80;;;;;;;18.04;71.84;100450.22;1776298;78;21083;-54
2021/07/09 02:07:17;;;;;;;1.00;0.80;;;;;;;18.03;71.96;100451.71;1768920;78;21305;-54
2021/07/09 02:09:46;;;;;;;2.52;0.72;;;;;;;18.00;71.96;100456.88;1781226;78;20941;-55
2021/07/09 02:12:13;;;;;;;2.35;0.80;;;;;;;17.98;71.89;100455.22;1782455;78;21087;-54
2021/07/09 02:14:39;;;;;;;2.58;0.90;;;;;;;17.92;71.97;100452.43;1785797;78;20957;-56
2021/07/09 02:17:14;;;;;;;1.45;0.93;;;;;;;17.89;72.01;100452.62;1783225;79;20922;-54
2021/07/09 02:19:41;;;;;;;0.85;0.85;;;;;;;17.88;72.23;100452.23;1782379;78;20914;-53
2021/07/09 02:22:09;;;;;;;5.28;0.70;;;;;;;17.87;72.36;100459.14;1802933;77;21041;-55
2021/07/09 02:24:40;;;;;;;2.52;0.70;;;;;;;17.85;72.36;100463.36;1807173;77;21065;-56
2021/07/09 02:27:07;;;;;;;2.25;0.60;;;;;;;17.87;72.40;100461.86;1817068;77;20962;-54
2021/07/09 02:29:33;;;;;;;3.17;0.82;;;;;;;17.87;72.47;100461.86;1815323;77;20953;-53
2021/07/09 02:32:05;;;;;;;2.50;0.80;;;;;;;17.88;72.46;100464.48;1781018;78;21059;-53
2021/07/09 02:34:31;;;;;;;1.42;0.65;;;;;;;17.88;72.49;100464.48;1808238;77;21288;-55
2021/07/09 02:36:57;;;;;;;1.75;0.80;;;;;;;17.88;72.54;100460.41;1811650;78;22246;-53
2021/07/09 02:39:25;;;;;;;3.70;0.75;;;;;;;17.89;72.57;100455.83;1808755;77;21532;-55
2021/07/09 02:41:54;;;;;;;5.05;0.80;;;;;;;17.88;72.62;100459.05;1814464;77;21005;-56
2021/07/09 02:44:21;;;;;;;1.25;0.70;;;;;;;17.89;72.69;100465.37;1781511;78;21336;-56
2021/07/09 02:46:50;;;;;;;4.40;0.70;;;;;;;17.90;72.88;100457.10;1815432;77;21055;-53
2021/07/09 02:49:16;;;;;;;0.95;0.75;;;;;;;17.92;72.95;100464.69;1812804;77;21365;-54
2021/07/09 02:51:43;;;;;;;1.98;0.70;;;;;;;17.93;73.17;100462.84;1811906;77;21093;-55
2021/07/09 02:54:09;;;;;;;2.75;1.22;;;;;;;17.96;73.38;100454.44;1780817;78;21032;-55
2021/07/09 02:56:36;;;;;;;2.02;0.70;;;;;;;17.98;73.49;100459.30;1810269;77;21503;-56
2021/07/09 02:59:02;;;;;;;2.40;0.80;;;;;;;18.00;73.64;100458.23;1813902;77;21052;-56
2021/07/09 03:01:29;;;;;;;4.53;0.78;;;;;;;18.02;73.77;100467.67;1782051;78;21149;-56
2021/07/09 03:03:56;;;;;;;4.58;0.90;;;;;;;18.02;73.93;100459.01;1811756;77;21072;-56
2021/07/09 03:06:22;;;;;;;3.67;0.80;;;;;;;18.02;74.11;100459.50;1780423;78;21393;-54
2021/07/09 03:08:50;;;;;;;3.95;0.78;;;;;;;18.04;74.31;100460.24;1778086;79;21374;-56
2021/07/09 03:11:18;;;;;;;2.25;0.60;;;;;;;18.06;74.52;100459.17;1811099;77;21036;-54
2021/07/09 03:13:44;;;;;;;2.35;0.60;;;;;;;18.09;74.73;100460.33;1813662;77;21132;-56
2021/07/09 03:16:11;;;;;;;2.70;0.70;;;;;;;18.13;75.00;100450.08;1815564;77;20985;-53
2021/07/09 03:18:37;;;;;;;0.60;0.60;;;;;;;18.18;75.20;100456.59;1815240;77;21408;-53
2021/07/09 03:21:05;;;;;;;2.52;0.80;;;;;;;18.24;75.44;100458.89;1817080;77;20925;-56
2021/07/09 03:23:31;;;;;;;1.35;0.70;;;;;;;18.30;75.59;100453.88;1817436;77;21286;-54
2021/07/09 03:26:00;;;;;;;1.30;0.65;;;;;;;18.35;75.73;100450.37;1778628;78;21824;-55
2021/07/09 03:28:27;;;;;;;6.47;0.90;;;;;;;18.40;75.79;100452.27;1807020;77;20870;-54
2021/07/09 03:30:54;;;;;;;2.37;0.65;;;;;;;18.47;76.04;100457.67;1776266;78;20863;-55
2021/07/09 03:33:20;;;;;;;2.40;0.60;;;;;;;18.54;76.26;100455.42;1808281;77;20898;-56
2021/07/09 03:35:46;;;;;;;3.52;0.70;;;;;;;18.59;76.35;100454.63;1777103;78;20914;-55
2021/07/09 03:38:13;;;;;;;0.82;0.78;;;;;;;18.66;76.50;100457.30;1807406;78;21023;-56
2021/07/09 03:40:40;;;;;;;2.77;0.88;;;;;;;18.73;76.65;100455.00;1780004;78;20945;-54
2021/07/09 03:43:08;;;;;;;4.83;0.70;;;;;;;18.80;76.90;100453.58;1778395;78;20938;-55
2021/07/09 03:45:35;;;;;;;2.22;0.70;;;;;;;18.89;77.09;100459.75;1776400;78;21685;-54
2021/07/09 03:48:04;;;;;;;1.75;0.70;;;;;;;18.97;77.32;100461.95;1775880;79;21060;-56
2021/07/09 03:50:32;;;;;;;0.80;0.70;;;;;;;19.03;77.49;100456.05;1778305;78;22510;-54
2021/07/09 03:52:59;;;;;;;3.37;0.80;;;;;;;19.09;77.63;100455.59;1778779;78;21124;-54
2021/07/09 03:55:25;;;;;;;1.77;0.85;;;;;;;19.15;77.91;100460.60;1767055;79;21330;-54
2021/07/09 03:57:53;;;;;;;1.37;0.70;;;;;;;19.22;78.22;100457.31;1782305;78;20968;-55
2021/07/09 04:00:20;;;;;;;2.90;0.70;;;;;;;19.32;78.27;100458.88;1783643;78;21398;-53
2021/07/09 04:02:46;;;;;;;1.10;0.78;;;;;;;19.41;78.34;100452.75;1786879;78;20988;-53
2021/07/09 04:05:13;;;;;;;0.80;0.70;;;;;;;19.48;78.34;100453.23;1781988;78;21281;-53
2021/07/09 04:07:40;;;;;;;2.12;0.80;;;;;;;19.57;78.40;100460.70;1785096;78;21881;-55
2021/07/09 04:10:08;;;;;;;2.47;0.70;;;;;;;19.65;78.34;100456.91;1782797;78;21080;-54
2021/07/09 04:12:37;;;;;;;4.75;0.78;;;;;;;19.74;78.35;100464.91;1782082;78;21044;-54
2021/07/09 04:15:07;;;;;;;4.97;0.80;;;;;;;19.84;77.87;100462.75;1784734;78;21111;-53
2021/07/09 04:17:35;;;;;;;9.15;0.80;;;;;;;19.95;77.55;100468.28;1787263;79;21093;-56
2021/07/09 04:20:03;;;;;;;1.98;1.00;;;;;;;20.07;76.50;100464.25;1787685;78;21104;-56
2021/07/09 04:22:31;;;;;;;4.75;0.80;;;;;;;20.18;75.49;100461.05;1786575;78;20960;-55
2021/07/09 04:24:57;;;;;;;0.95;0.70;;;;;;;20.31;73.76;100457.77;1784542;78;21029;-55
2021/07/09 04:27:23;;;;;;;0.95;0.70;;;;;;;20.46;72.85;100458.46;1783459;78;21107;-54
2021/07/09 04:29:51;;;;;;;3.05;0.80;;;;;;;20.61;71.42;100453.64;1786749;78;21267;-53
2021/07/09 04:32:18;;;;;;;5.90;0.85;;;;;;;20.72;70.58;100454.55;1780925;78;22432;-55
2021/07/09 04:34:44;;;;;;;3.80;0.78;;;;;;;20.83;69.25;100453.71;1786059;78;21001;-54
2021/07/09 04:37:10;;;;;;;0.95;0.78;;;;;;;20.96;68.09;100457.69;1785144;78;21144;-56
2021/07/09 04:39:37;;;;;;;3.60;0.80;;;;;;;21.06;67.40;100456.83;1785269;78;21085;-55
2021/07/09 04:42:05;;;;;;;5.12;0.90;;;;;;;21.17;66.23;100460.58;1790299;78;21049;-55
2021/07/09 04:44:32;;;;;;;11.03;1.35;;;;;;;21.27;65.70;100458.34;1785379;78;21318;-56
2021/07/09 04:46:58;;;;;;;2.72;0.90;;;;;;;21.36;65.62;100459.46;1786392;78;21395;-56
2021/07/09 04:49:26;;;;;;;3.20;0.90;;;;;;;21.45;65.54;100457.34;1785368;78;21038;-53
2021/07/09 04:51:53;;;;;;;3.72;0.80;;;;;;;21.55;65.21;100454.22;1809101;77;21110;-54
2021/07/09 04:54:20;;;;;;;2.17;0.90;;;;;;;21.65;64.81;100460.69;1808668;77;21130;-56
2021/07/09 04:56:47;;;;;;;4.97;0.90;;;;;;;21.75;64.11;100457.56;1777541;78;20970;-55
2021/07/09 04:59:13;;;;;;;4.72;1.00;;;;;;;21.89;63.86;100463.23;1811382;77;21669;-57
2021/07/09 05:01:40;;;;;;;4.58;1.40;;;;;;;22.02;63.70;100459.02;1809094;77;21038;-56
2021/07/09 05:04:07;;;;;;;3.37;0.98;;;;;;;22.12;63.34;100462.19;1777363;78;21103;-54
2021/07/09 05:06:35;;;;;;;0.90;0.80;;;;;;;22.22;63.16;100459.05;1810744;77;21770;-55
2021/07/09 05:09:04;;;;;;;5.85;1.00;;;;;;;22.33;62.99;100464.98;1774367;78;21574;-56
2021/07/09 05:11:34;;;;;;;3.12;0.88;;;;;;;22.41;62.36;100458.34;1773120;79;21370;-55
2021/07/09 05:14:02;;;;;;;12.63;1.00;;;;;;;22.51;62.16;100463.91;1782853;78;21103;-56
2021/07/09 05:16:28;;;;;;;5.08;1.02;;;;;;;22.58;61.10;100453.64;1786852;78;21131;-55
2021/07/09 05:18:56;;;;;;;3.22;0.70;;;;;;;22.68;60.89;100452.84;1787688;78;21087;-55
2021/07/09 05:21:25;;;;;;;3.33;0.68;;;;;;;22.76;59.76;100459.92;1784920;78;21072;-55
2021/07/09 05:23:52;;;;;;;4.40;0.62;;;;;;;22.85;59.34;100457.25;1785218;78;21072;-56
2021/07/09 05:26:19;;;;;;;1.57;0.60;;;;;;;22.94;58.66;100456.44;1781204;79;21701;-54
2021/07/09 05:28:45;;;;;;;3.75;0.70;;;;;;;23.03;58.38;100452.00;1778737;79;22123;-55
2021/07/09 05:31:11;;;;;;;2.30;0.70;;;;;;;23.13;58.07;100453.43;1776281;79;21638;-55
2021/07/09 05:33:38;;;;;;;1.25;0.60;;;;;;;23.20;57.06;100450.50;1782165;78;20879;-55
2021/07/09 05:36:04;;;;;;;2.70;0.57;;;;;;;23.28;57.12;100459.78;1780178;78;20962;-55
2021/07/09 05:38:30;;;;;;;8.78;0.70;;;;;;;23.36;57.02;100454.97;1801930;77;21056;-56
2021/07/09 05:40:58;;;;;;;2.67;0.70;;;;;;;23.43;56.40;100450.66;1775699;78;21188;-56
2021/07/09 05:43:24;;;;;;;1.90;0.70;;;;;;;23.52;56.50;100450.36;1795711;77;21082;-56
2021/07/09 05:45:50;;;;;;;3.98;0.57;;;;;;;23.60;55.92;100453.27;1796120;77;21455;-55
2021/07/09 05:48:16;;;;;;;0.70;0.50;;;;;;;23.65;55.69;100454.58;1801861;77;21770;-57
2021/07/09 05:50:44;;;;;;;8.03;0.60;;;;;;;23.71;55.15;100454.04;1769950;78;21684;-56
2021/07/09 05:53:10;;;;;;;4.58;0.50;;;;;;;23.78;54.88;100452.09;1767008;79;21486;-56
2021/07/09 05:55:36;;;;;;;3.70;0.60;;;;;;;23.85;53.98;100447.77;1784517;79;20930;-55
2021/07/09 05:58:03;;;;;;;2.47;0.45;;;;;;;23.93;53.64;100446.05;1784245;78;20977;-56
2021/07/09 06:00:29;;;;;;;1.17;0.50;;;;;;;24.00;52.89;100443.08;1777448;78;21384;-56
2021/07/09 06:02:55;;;;;;;0.93;0.53;;;;;;;24.08;52.96;100443.23;1788501;78;21089;-54
2021/07/09 06:05:22;;;;;;;4.10;0.57;;;;;;;24.16;53.23;100443.87;1785985;78;21159;-55
2021/07/09 06:07:48;;;;;;;2.15;0.50;;;;;;;24.23;53.10;100445.61;1786762;78;20933;-55
2021/07/09 06:10:15;;;;;;;3.25;0.70;;;;;;;24.30;52.33;100447.63;1788164;79;20943;-56
2021/07/09 06:12:41;;;;;;;2.87;0.60;;;;;;;24.38;51.54;100440.89;1807043;78;20902;-56
2021/07/09 06:15:09;;;;;;;0.85;0.45;;;;;;;24.47;51.56;100441.91;1784217;78;21628;-55
2021/07/09 06:17:35;;;;;;;0.70;0.60;;;;;;;24.57;50.75;100446.02;1782160;78;21067;-55
2021/07/09 06:20:04;;;;;;;1.72;0.60;;;;;;;24.64;50.95;100443.05;1782602;78;20966;-57
2021/07/09 06:22:30;;;;;;;1.02;0.60;;;;;;;24.72;51.43;100438.53;1782935;79;21490;-56
2021/07/09 06:24:57;;;;;;;4.00;0.70;;;;;;;24.80;50.88;100432.28;1781978;79;21626;-54
2021/07/09 06:27:23;;;;;;;2.05;0.60;;;;;;;24.86;50.38;100428.42;1782752;79;21060;-55
2021/07/09 06:29:49;;;;;;;2.02;0.53;;;;;;;24.92;49.39;100429.77;1779316;79;22057;-54
2021/07/09 06:32:16;;;;;;;0.95;0.50;;;;;;;24.98;49.83;100434.66;1776315;78;21615;-56
2021/07/09 06:34:42;;;;;;;2.20;0.45;;;;;;;25.03;49.52;100430.07;1780784;78;21036;-57
2021/07/09 06:37:08;;;;;;;3.98;0.40;;;;;;;25.07;48.80;100437.03;1777879;78;21045;-55
2021/07/09 06:39:36;;;;;;;1.72;0.70;;;;;;;25.11;48.61;100434.31;1780647;78;21100;-55
2021/07/09 06:42:02;;;;;;;0.60;0.40;;;;;;;25.14;48.34;100435.41;1780673;78;21110;-57
2021/07/09 06:44:29;;;;;;;1.87;0.40;;;;;;;25.18;48.12;100436.82;1784350;79;21396;-57
2021/07/09 06:46:57;;;;;;;2.20;0.50;;;;;;;25.22;48.42;100437.77;1781790;79;21052;-57
2021/07/09 06:49:23;;;;;;;3.05;0.50;;;;;;;25.29;47.76;100432.51;1780119;78;21048;-57
2021/07/09 06:51:49;;;;;;;1.32;0.50;;;;;;;25.38;47.37;100428.84;1780785;78;21715;-55
2021/07/09 06:54:16;;;;;;;0.50;0.40;;;;;;;25.47;47.11;100423.80;1782437;78;21108;-56
2021/07/09 06:57:36;;;;;;;5.67;0.40;;;;;;;25.58;45.29;100422.22;1790137;78;23104;-54
2021/07/09 07:00:06;;;;;;;2.37;0.40;;;;;;;25.58;45.23;100431.00;1771183;79;21073;-55
2021/07/09 07:02:33;;;;;;;1.80;0.40;;;;;;;25.62;45.30;100431.94;1713661;81;21487;-55
2021/07/09 07:05:01;;;;;;;0.55;0.30;;;;;;;25.69;44.44;100433.55;1720136;81;20978;-55
2021/07/09 07:07:28;;;;;;;1.85;0.40;;;;;;;25.74;43.85;100427.59;1710890;81;21093;-53
2021/07/09 07:09:54;;;;;;;1.02;0.33;;;;;;;25.81;43.46;100425.95;1710498;81;20978;-56
2021/07/09 07:12:21;;;;;;;2.83;0.40;;;;;;;25.85;43.98;100428.26;1721979;82;20981;-57
2021/07/09 07:14:47;;;;;;;0.57;0.40;;;;;;;25.92;43.37;100428.50;1720543;82;21153;-55
2021/07/09 07:17:16;;;;;;;1.55;0.33;;;;;;;26.03;43.93;100426.03;1718880;82;21065;-55
2021/07/09 07:19:42;;;;;;;0.50;0.50;;;;;;;26.11;43.23;100427.49;1716540;81;21514;-54
2021/07/09 07:22:08;;;;;;;3.15;0.33;;;;;;;26.19;41.62;100416.53;1730337;81;21121;-54
2021/07/09 07:24:35;;;;;;;5.03;0.30;;;;;;;26.25;40.43;100425.55;1709555;81;21076;-54
2021/07/09 07:27:02;;;;;;;1.60;0.28;;;;;;;26.29;39.40;100425.09;1706344;82;21655;-54
2021/07/09 07:29:29;;;;;;;1.62;0.30;;;;;;;26.35;39.09;100416.20;1706874;81;21061;-55
2021/07/09 07:31:55;;;;;;;2.15;0.30;;;;;;;26.41;38.88;100411.06;1737635;81;21116;-55
2021/07/09 07:34:21;;;;;;;1.42;0.30;;;;;;;26.45;39.06;100410.59;1703811;81;21464;-55
2021/07/09 07:36:48;;;;;;;0.90;0.30;;;;;;;26.51;39.32;100406.32;1696769;82;22234;-56
2021/07/09 07:39:14;;;;;;;0.90;0.30;;;;;;;26.57;39.34;100404.28;1706492;83;21107;-54
2021/07/09 07:41:41;;;;;;;3.17;0.30;;;;;;;26.65;39.68;100404.34;1710777;83;21456;-56
2021/07/09 07:44:07;;;;;;;0.42;0.30;;;;;;;26.74;38.53;100396.47;1706588;83;21077;-57
2021/07/09 07:46:34;;;;;;;7.40;0.35;;;;;;;26.82;38.28;100402.05;1706997;81;21116;-57
2021/07/09 07:49:00;;;;;;;2.87;0.30;;;;;;;26.91;38.14;100399.73;1713301;81;21074;-56
2021/07/09 07:51:26;;;;;;;1.65;0.57;;;;;;;27.00;37.95;100397.88;1708427;82;21142;-54
2021/07/09 07:53:53;;;;;;;1.40;0.20;;;;;;;27.07;37.39;100403.97;1735624;80;21119;-56
2021/07/09 07:56:19;;;;;;;0.60;0.40;;;;;;;27.14;35.93;100404.72;1727269;80;21099;-56
2021/07/09 07:58:45;;;;;;;1.60;0.50;;;;;;;27.19;36.96;100395.41;1715184;81;21648;-57
2021/07/09 08:01:13;;;;;;;0.60;0.20;;;;;;;27.27;36.76;100405.11;1753432;80;21065;-56
2021/07/09 08:03:40;;;;;;;1.05;0.30;;;;;;;27.34;36.23;100400.65;1756108;80;21588;-56
2021/07/09 08:06:06;;;;;;;5.65;0.40;;;;;;;27.42;36.54;100399.30;1752804;80;21360;-57
2021/07/09 08:08:33;;;;;;;0.98;0.40;;;;;;;27.50;37.52;100408.50;1731637;80;21078;-57
2021/07/09 08:10:59;;;;;;;0.40;0.40;;;;;;;27.60;37.74;100409.78;1755534;80;21071;-54
2021/07/09 08:13:26;;;;;;;2.00;0.60;;;;;;;27.65;37.09;100396.30;1753730;79;21094;-54
2021/07/09 08:15:52;;;;;;;0.60;0.30;;;;;;;27.69;37.25;100393.56;1756502;80;21516;-55
2021/07/09 08:18:19;;;;;;;0.60;0.30;;;;;;;27.74;36.54;100394.42;1756274;80;21061;-54
2021/07/09 08:20:46;;;;;;;0.55;0.30;;;;;;;27.78;37.27;100398.09;1756232;80;21098;-56
2021/07/09 08:23:12;;;;;;;1.77;0.40;;;;;;;27.83;37.19;100390.13;1752898;80;21407;-53
2021/07/09 08:25:40;;;;;;;1.17;0.30;;;;;;;27.89;36.21;100383.59;1757689;80;21520;-55
2021/07/09 08:28:06;;;;;;;0.33;0.30;;;;;;;27.95;35.62;100389.82;1753362;79;21192;-53
2021/07/09 08:30:33;;;;;;;3.02;0.30;;;;;;;27.99;35.77;100384.27;1751996;80;21070;-54
2021/07/09 08:33:00;;;;;;;2.47;0.30;;;;;;;28.03;35.99;100374.61;1752303;79;21059;-55
2021/07/09 08:35:28;;;;;;;6.05;0.50;;;;;;;28.09;35.90;100381.70;1753026;80;21476;-56
2021/07/09 08:37:54;;;;;;;0.82;0.40;;;;;;;28.12;35.70;100363.90;1755324;80;21682;-56
2021/07/09 08:40:21;;;;;;;1.07;0.30;;;;;;;28.13;35.03;100360.97;1756177;79;22667;-56
2021/07/09 08:42:48;;;;;;;0.30;0.30;;;;;;;28.18;35.01;100358.56;1717780;82;21067;-56
2021/07/09 08:45:14;;;;;;;8.18;0.37;;;;;;;28.22;34.23;100350.80;1751649;79;21161;-56
2021/07/09 08:47:40;;;;;;;1.98;0.30;;;;;;;28.25;35.16;100360.12;1757255;80;22205;-54
2021/07/09 08:50:10;;;;;;;0.80;0.40;;;;;;;28.28;35.55;100358.40;1755564;80;21651;-55
2021/07/09 08:52:36;;;;;;;3.67;0.30;;;;;;;28.31;35.20;100359.97;1757279;80;22473;-54
2021/07/09 08:55:05;;;;;;;0.40;0.30;;;;;;;28.36;35.23;100356.14;1761215;80;20891;-54
2021/07/09 08:57:31;;;;;;;3.20;0.40;;;;;;;28.41;35.98;100351.80;1761161;80;20931;-56
2021/07/09 08:59:58;;;;;;;0.55;0.30;;;;;;;28.45;35.01;100350.44;1768499;79;20859;-56
2021/07/09 09:02:26;;;;;;;2.65;0.40;;;;;;;28.50;35.29;100352.66;1706685;82;20952;-57
2021/07/09 09:04:55;;;;;;;1.57;0.62;;;;;;;28.55;35.08;100355.27;1766932;80;21417;-54
2021/07/09 09:07:21;;;;;;;0.60;0.30;;;;;;;28.58;35.13;100345.20;1765963;80;20903;-55
2021/07/09 09:09:48;;;;;;;0.33;0.30;;;;;;;28.61;34.98;100346.25;1740838;80;20987;-60
2021/07/09 09:12:16;;;;;;;1.25;0.30;;;;;;;28.63;34.51;100336.91;1766772;80;20977;-55
2021/07/09 09:14:49;;;;;;;0.93;0.35;;;;;;;28.63;33.91;100335.52;1767364;79;20959;-55
2021/07/09 09:17:31;;;;;;;0.80;0.40;;;;;;;28.60;34.68;100332.06;1768328;80;21570;-52
2021/07/09 09:20:16;;;;;;;6.35;0.50;;;;;;;28.64;34.75;100341.41;1764662;80;22138;-54
2021/07/09 09:22:54;;;;;;;2.20;0.30;;;;;;;28.66;34.22;100337.95;1765876;79;20905;-53
2021/07/09 09:25:29;;;;;;;0.53;0.30;;;;;;;28.70;34.85;100343.47;1767250;80;20994;-55
2021/07/09 09:28:07;;;;;;;1.80;0.65;;;;;;;28.75;35.00;100349.36;1766170;80;21603;-52
2021/07/09 09:30:34;;;;;;;0.40;0.30;;;;;;;28.76;33.63;100349.68;1762898;80;22547;-56
2021/07/09 09:33:04;;;;;;;0.82;0.30;;;;;;;28.76;34.24;100338.59;1761735;79;21516;-56
2021/07/09 09:35:41;;;;;;;1.98;0.40;;;;;;;28.78;34.32;100341.58;1765246;80;20946;-56
2021/07/09 09:38:10;;;;;;;1.65;0.40;;;;;;;28.82;34.42;100343.48;1765298;80;20985;-54
2021/07/09 09:40:38;;;;;;;0.50;0.40;;;;;;;28.85;34.92;100347.27;1765009;80;21136;-56
2021/07/09 09:43:08;;;;;;;1.60;0.30;;;;;;;28.86;34.20;100337.40;1762505;80;21084;-57
2021/07/09 09:45:36;;;;;;;1.77;0.35;;;;;;;28.87;33.52;100336.36;1762328;80;21269;-55
2021/07/09 09:48:12;;;;;;;1.30;0.40;;;;;;;28.88;33.84;100332.55;1761139;79;21049;-56
2021/07/09 09:50:49;;;;;;;1.60;0.50;;;;;;;28.86;34.63;100333.24;1760537;80;21642;-55
2021/07/09 09:53:33;;;;;;;1.15;0.40;;;;;;;28.84;34.73;100327.53;1725660;80;21058;-56
2021/07/09 09:56:06;;;;;;;3.40;0.45;;;;;;;28.85;35.33;100323.72;1764883;80;21599;-57
2021/07/09 09:58:33;;;;;;;;;;;;;;;28.87;34.83;100320.25;1746905;80;21033;-54
2021/07/09 10:01:00;;;;;;;0.40;0.30;;;;;;;28.91;35.06;100318.87;1736898;80;20448;-56
2021/07/09 10:03:26;;;;;;;0.55;0.40;;;;;;;28.89;33.86;100314.89;1742963;80;21050;-56
2021/07/09 10:05:53;;;;;;;0.60;0.40;;;;;;;28.79;34.60;100313.36;1737353;80;21085;-58
2021/07/09 10:08:21;;;;;;;1.95;0.40;;;;;;;28.72;34.46;100311.79;1738879;80;21164;-58
2021/07/09 10:10:49;;;;;;;1.10;0.40;;;;;;;28.74;34.95;100308.84;1742460;80;21072;-57
2021/07/09 10:13:17;;;;;;;1.62;0.30;;;;;;;28.79;35.71;100308.68;1734829;80;21152;-58
2021/07/09 10:15:48;;;;;;;3.50;0.40;;;;;;;28.85;35.58;100310.73;1737118;80;21102;-57
2021/07/09 10:18:15;;;;;;;0.68;0.35;;;;;;;28.92;34.61;100309.52;1742580;80;21106;-57
2021/07/09 10:20:43;;;;;;;1.10;0.37;;;;;;;28.95;34.89;100309.14;1739226;80;21108;-58
2021/07/09 10:23:10;;;;;;;1.72;0.40;;;;;;;28.99;35.46;100298.06;1739266;80;21025;-57
2021/07/09 10:25:36;;;;;;;3.45;0.40;;;;;;;29.04;34.51;100288.67;1738368;80;21045;-62
2021/07/09 10:28:08;;;;;;;2.87;0.40;;;;;;;29.09;35.30;100293.69;1708047;80;21041;-58
2021/07/09 10:30:41;;;;;;;4.58;0.50;;;;;;;29.14;35.00;100288.45;1744201;80;21476;-57
2021/07/09 10:33:33;;;;;;;1.42;0.42;;;;;;;29.20;35.38;100287.20;1743019;80;22414;-59
2021/07/09 10:36:10;;;;;;;0.75;0.40;;;;;;;29.27;35.61;100288.72;1740183;80;20954;-59
2021/07/09 10:38:41;;;;;;;0.85;0.40;;;;;;;29.31;34.61;100284.56;1736109;80;21105;-57
2021/07/09 10:41:17;;;;;;;2.15;0.40;;;;;;;29.27;33.98;100286.81;1703450;82;21057;-57
2021/07/09 10:44:18;;;;;;;0.50;0.30;;;;;;;29.26;33.53;100282.87;1674803;83;22574;-58
2021/07/09 10:46:42;;;;;;;1.07;0.40;;;;;;;29.24;33.62;100273.86;1702114;82;21094;-57
2021/07/09 10:49:09;;;;;;;1.27;0.40;;;;;;;29.27;34.46;100279.02;1679142;83;21040;-58
2021/07/09 10:51:52;;;;;;;1.95;0.40;;;;;;;29.30;34.39;100273.98;1678830;83;21144;-59
2021/07/09 10:54:29;;;;;;;2.63;0.50;;;;;;;29.34;34.98;100271.21;1738111;80;21065;-57
2021/07/09 10:57:21;;;;;;;0.42;0.30;;;;;;;29.38;35.01;100267.56;1745351;80;20986;-60
2021/07/09 11:00:23;;;;;;;1.85;0.50;;;;;;;29.40;33.62;100268.77;1765534;79;21325;-57
2021/07/09 11:03:04;;;;;;;0.95;0.40;;;;;;;29.39;33.48;100261.49;1764286;80;21099;-58
2021/07/09 11:05:51;;;;;;;1.65;0.40;;;;;;;29.31;34.06;100261.86;1710064;82;21451;-60
2021/07/09 11:08:36;;;;;;;5.37;0.50;;;;;;;29.30;35.17;100254.58;1708128;83;21362;-58
2021/07/09 11:11:17;;;;;;;3.25;0.53;;;;;;;29.37;35.14;100260.28;1709069;82;21644;-58
2021/07/09 11:13:49;;;;;;;0.42;0.40;;;;;;;29.42;34.34;100255.08;1715116;83;21300;-58
2021/07/09 11:16:38;;;;;;;1.32;0.40;;;;;;;29.46;34.85;100255.55;1712322;83;21352;-58
2021/07/09 11:19:15;;;;;;;1.37;0.40;;;;;;;29.49;33.97;100246.87;1706793;82;21053;-58
2021/07/09 11:21:49;;;;;;;2.67;0.40;;;;;;;29.52;33.93;100238.20;1709352;83;21448;-59
2021/07/09 11:24:18;;;;;;;2.62;0.40;;;;;;;29.53;34.25;100240.77;1705133;83;21307;-60
2021/07/09 11:26:48;;;;;;;0.82;0.40;;;;;;;29.54;33.81;100238.85;1708608;82;21944;-60
2021/07/09 11:29:41;;;;;;;1.80;0.40;;;;;;;29.54;33.22;100236.95;1711884;81;21061;-60
2021/07/09 11:32:14;;;;;;;1.15;0.40;;;;;;;29.55;33.72;100237.81;1707300;83;21207;-60